Time;durP1;ratioP1;P1;durP2;ratioP2;P2;SDS_P1;SDS_P2;PMS_P1;PMS_P2;Temp;Humidity;BMP_temperature;BMP_pressure;BME280_temperature;BME280_humidity;BME280_pressure;Samples;Min_cycle;Max_cycle;Signal;HPM_P1;HPM_P2
2023/04/17 00:01:39;;;;;;;1.52;1.42;;;7.60;99.90;;;;;;5060813;28;20078;-81
2023/04/17 00:04:09;;;;;;;1.58;1.08;;;7.70;99.90;;;;;;5074668;28;20469;-82
2023/04/17 00:06:36;;;;;;;3.80;2.17;;;7.70;99.90;;;;;;5081215;28;20052;-82
2023/04/17 00:09:03;;;;;;;7.07;2.03;;;7.70;99.90;;;;;;5080416;28;20082;-82
2023/04/17 00:11:29;;;;;;;3.33;1.35;;;7.70;99.90;;;;;;5075450;28;20096;-81
2023/04/17 00:13:54;;;;;;;7.10;4.60;;;7.70;99.90;;;;;;5062852;28;20081;-82
2023/04/17 00:16:20;;;;;;;5.70;3.95;;;7.70;99.90;;;;;;5076384;28;20064;-82
2023/04/17 00:18:46;;;;;;;2.03;1.67;;;7.70;99.90;;;;;;5079009;28;20133;-82
2023/04/17 00:21:12;;;;;;;2.05;1.85;;;7.70;99.90;;;;;;5075878;28;20056;-81
2023/04/17 00:23:37;;;;;;;3.15;2.85;;;7.80;99.90;;;;;;5070070;28;20067;-82
2023/04/17 00:26:03;;;;;;;2.17;1.77;;;7.70;99.90;;;;;;5078681;28;20592;-82
2023/04/17 00:28:29;;;;;;;5.07;2.72;;;7.70;99.90;;;;;;5077893;28;20933;-81
2023/04/17 00:30:57;;;;;;;2.70;2.00;;;7.70;99.90;;;;;;5077264;28;20048;-82
2023/04/17 00:33:22;;;;;;;3.30;2.17;;;7.70;99.90;;;;;;5077392;28;20052;-82
2023/04/17 00:35:48;;;;;;;2.40;2.20;;;7.70;99.90;;;;;;5075640;28;20120;-83
2023/04/17 00:38:14;;;;;;;2.17;1.98;;;7.70;99.90;;;;;;5076949;28;20053;-81
2023/04/17 00:40:40;;;;;;;2.35;2.15;;;7.70;99.90;;;;;;5076713;28;20132;-82
2023/04/17 00:43:06;;;;;;;12.88;2.45;;;7.70;99.90;;;;;;5076117;28;20055;-81
2023/04/17 00:45:32;;;;;;;10.18;3.80;;;7.70;99.90;;;;;;5075654;28;20044;-82
2023/04/17 00:47:59;;;;;;;4.50;2.97;;;7.70;99.90;;;;;;5075905;28;20100;-82
2023/04/17 00:50:27;;;;;;;6.68;2.28;;;7.70;99.90;;;;;;5075321;28;20079;-84
2023/04/17 00:52:53;;;;;;;5.25;3.97;;;7.70;99.90;;;;;;5053745;28;20040;-82
2023/04/17 00:55:19;;;;;;;3.20;2.90;;;7.70;99.90;;;;;;5054133;28;20048;-82
2023/04/17 00:57:48;;;;;;;4.63;3.03;;;7.50;99.90;;;;;;5055085;28;20063;-82
2023/04/17 01:00:16;;;;;;;3.72;2.45;;;7.70;99.90;;;;;;5055075;28;20041;-82
2023/04/17 01:02:43;;;;;;;0.68;0.68;;;7.70;99.90;;;;;;5061131;28;20305;-82
2023/04/17 01:05:09;;;;;;;5.50;2.50;;;7.70;99.90;;;;;;5092600;28;20032;-82
2023/04/17 01:07:36;;;;;;;9.60;2.85;;;7.80;99.90;;;;;;5092313;28;20045;-82
2023/04/17 01:10:06;;;;;;;2.72;2.53;;;7.70;99.90;;;;;;5092346;28;20070;-82
2023/04/17 01:12:31;;;;;;;4.32;2.67;;;7.70;99.90;;;;;;5092381;28;20036;-82
2023/04/17 01:14:57;;;;;;;2.25;1.85;;;7.70;99.90;;;;;;5091978;28;20025;-81
2023/04/17 01:17:26;;;;;;;8.77;3.80;;;7.80;99.90;;;;;;5092087;28;20056;-81
2023/04/17 01:19:53;;;;;;;4.13;3.60;;;7.70;99.90;;;;;;5088671;28;20063;-80
2023/04/17 01:22:21;;;;;;;3.92;2.92;;;7.80;99.90;;;;;;5070236;28;20104;-81
2023/04/17 01:24:48;;;;;;;2.47;2.28;;;7.70;99.90;;;;;;5078998;28;20051;-82
2023/04/17 01:27:14;;;;;;;1.88;1.75;;;8.70;99.90;;;;;;5078376;28;20041;-81
2023/04/17 01:29:43;;;;;;;3.15;1.98;;;7.70;99.90;;;;;;5077661;28;20542;-81
2023/04/17 01:32:09;;;;;;;9.35;4.05;;;7.70;99.90;;;;;;5074609;28;20043;-82
2023/04/17 01:34:35;;;;;;;8.15;4.80;;;8.50;99.90;;;;;;5084003;28;20041;-81
2023/04/17 01:37:04;;;;;;;5.43;3.45;;;7.70;99.90;;;;;;5072812;28;20047;-81
2023/04/17 01:39:29;;;;;;;4.85;4.38;;;7.70;99.90;;;;;;5064060;28;20045;-81
2023/04/17 01:41:55;;;;;;;4.10;3.75;;;7.70;99.90;;;;;;5071194;28;20448;-80
2023/04/17 01:44:21;;;;;;;6.88;4.30;;;7.70;99.90;;;;;;5082748;28;20044;-81
2023/04/17 01:46:46;;;;;;;8.82;2.17;;;7.70;99.90;;;;;;5084995;28;20040;-82
2023/04/17 01:49:13;;;;;;;2.38;2.17;;;7.70;99.90;;;;;;5074050;28;20044;-81
2023/04/17 01:51:38;;;;;;;6.40;3.50;;;7.70;99.90;;;;;;5075897;28;20039;-82
2023/04/17 01:54:04;;;;;;;3.33;2.03;;;7.70;99.90;;;;;;5083571;28;20044;-81
2023/04/17 01:56:30;;;;;;;2.35;2.15;;;7.70;99.90;;;;;;5082359;28;20140;-82
2023/04/17 01:58:56;;;;;;;2.53;1.85;;;7.60;99.90;;;;;;5084167;28;20068;-80
2023/04/17 02:01:22;;;;;;;3.10;2.08;;;7.70;99.90;;;;;;5078679;28;20041;-82
2023/04/17 02:03:47;;;;;;;10.63;4.65;;;7.80;99.90;;;;;;5064319;28;20123;-82
2023/04/17 02:06:14;;;;;;;3.85;3.35;;;7.70;99.90;;;;;;5063804;28;20052;-81
2023/04/17 02:08:40;;;;;;;6.63;2.90;;;7.70;99.90;;;;;;5062844;28;20417;-81
2023/04/17 02:11:06;;;;;;;6.07;3.08;;;7.60;99.90;;;;;;5067271;28;20104;-82
2023/04/17 02:13:34;;;;;;;2.95;2.65;;;7.60;99.90;;;;;;5082389;28;20109;-82
2023/04/17 02:16:00;;;;;;;7.40;2.40;;;7.60;99.90;;;;;;5084082;28;20055;-80
2023/04/17 02:18:25;;;;;;;9.90;3.83;;;7.60;99.90;;;;;;5081795;28;20056;-81
2023/04/17 02:20:51;;;;;;;13.02;5.40;;;7.60;99.90;;;;;;5078495;28;20073;-81
2023/04/17 02:23:17;;;;;;;10.05;4.15;;;7.60;99.90;;;;;;5064044;28;20041;-80
2023/04/17 02:25:42;;;;;;;5.15;3.75;;;7.60;99.90;;;;;;5063758;28;20052;-83
2023/04/17 02:28:08;;;;;;;8.40;6.00;;;7.60;99.90;;;;;;5062653;28;20051;-80
2023/04/17 02:30:34;;;;;;;9.40;4.63;;;7.60;99.90;;;;;;5077914;28;20041;-81
2023/04/17 02:33:00;;;;;;;3.58;2.72;;;7.60;99.90;;;;;;5064952;28;20124;-82
2023/04/17 02:35:29;;;;;;;4.55;3.35;;;7.60;99.90;;;;;;5064740;28;20091;-82
2023/04/17 02:37:55;;;;;;;3.40;2.38;;;7.60;99.90;;;;;;5060326;28;20133;-81
2023/04/17 02:40:21;;;;;;;4.53;3.65;;;7.60;99.90;;;;;;5061037;28;20064;-83
2023/04/17 02:42:46;;;;;;;2.80;2.58;;;7.50;99.90;;;;;;5080754;28;20378;-83
2023/04/17 02:45:12;;;;;;;10.35;4.25;;;7.50;99.90;;;;;;5079398;28;20041;-82
2023/04/17 02:47:38;;;;;;;5.80;3.63;;;7.50;99.90;;;;;;5081032;28;20096;-82
2023/04/17 02:50:05;;;;;;;5.70;2.72;;;7.50;99.90;;;;;;5079501;28;20490;-82
2023/04/17 02:52:31;;;;;;;2.65;1.48;;;7.50;99.90;;;;;;5062026;28;20508;-81
2023/04/17 02:54:57;;;;;;;1.70;1.55;;;7.40;99.90;;;;;;5058899;28;20045;-80
2023/04/17 02:57:24;;;;;;;3.17;2.80;;;7.50;99.90;;;;;;5059235;28;20052;-81
2023/04/17 02:59:50;;;;;;;3.22;2.55;;;7.40;99.90;;;;;;5058996;28;20053;-81
2023/04/17 03:02:20;;;;;;;4.88;4.38;;;8.20;99.90;;;;;;5058604;28;20541;-81
2023/04/17 03:04:50;;;;;;;1.10;1.05;;;7.40;99.90;;;;;;5060205;28;20048;-81
2023/04/17 03:07:22;;;;;;;13.15;1.55;;;7.40;99.90;;;;;;5059128;28;20098;-83
2023/04/17 03:09:48;;;;;;;1.83;1.15;;;7.40;99.90;;;;;;5059831;28;20130;-82
2023/04/17 03:12:15;;;;;;;4.72;2.20;;;7.40;99.90;;;;;;5074575;28;20040;-81
2023/04/17 03:14:42;;;;;;;2.50;1.75;;;7.40;99.90;;;;;;5079435;28;20072;-82
2023/04/17 03:17:08;;;;;;;1.27;1.17;;;7.40;99.90;;;;;;5078658;28;20055;-82
2023/04/17 03:19:34;;;;;;;0.80;0.80;;;7.40;99.90;;;;;;5079261;28;20044;-82
2023/04/17 03:22:02;;;;;;;3.25;2.33;;;7.40;99.90;;;;;;5064152;28;20311;-81
2023/04/17 03:24:28;;;;;;;4.45;2.80;;;7.30;99.90;;;;;;5058066;28;20621;-81
2023/04/17 03:26:55;;;;;;;3.50;2.03;;;7.40;99.90;;;;;;5056634;28;20061;-81
2023/04/17 03:29:20;;;;;;;1.92;1.77;;;7.40;99.90;;;;;;5057320;28;20507;-81
2023/04/17 03:31:46;;;;;;;6.70;2.65;;;7.30;99.90;;;;;;5075492;28;20047;-81
2023/04/17 03:34:12;;;;;;;5.40;1.65;;;7.30;99.90;;;;;;5084344;28;20076;-80
2023/04/17 03:36:37;;;;;;;5.03;2.45;;;7.30;99.90;;;;;;5083727;28;20547;-81
2023/04/17 03:39:03;;;;;;;2.08;1.80;;;7.30;99.90;;;;;;5076770;28;20045;-81
2023/04/17 03:41:29;;;;;;;3.13;1.98;;;7.30;99.90;;;;;;5077430;28;20100;-81
2023/04/17 03:43:55;;;;;;;2.38;2.17;;;7.30;99.90;;;;;;5067729;28;20059;-81
2023/04/17 03:46:20;;;;;;;2.50;2.28;;;7.30;99.90;;;;;;5085791;28;20040;-82
2023/04/17 03:48:46;;;;;;;1.83;1.73;;;7.30;99.90;;;;;;5085505;28;20123;-82
2023/04/17 03:51:12;;;;;;;1.70;1.25;;;7.20;99.90;;;;;;5082812;28;20071;-80
2023/04/17 03:53:37;;;;;;;1.80;1.52;;;7.20;99.90;;;;;;5082127;28;20076;-81
2023/04/17 03:56:03;;;;;;;1.25;1.10;;;7.20;99.90;;;;;;5083645;28;20040;-81
2023/04/17 03:58:29;;;;;;;5.35;3.72;;;7.20;99.90;;;;;;5083750;28;20064;-82
2023/04/17 04:00:57;;;;;;;4.93;3.45;;;7.40;99.90;;;;;;5070451;28;20033;-82
2023/04/17 04:03:23;;;;;;;10.57;3.30;;;7.20;99.90;;;;;;5087796;28;20052;-82
2023/04/17 04:05:49;;;;;;;2.25;2.00;;;7.20;99.90;;;;;;5093807;28;20084;-81
2023/04/17 04:08:15;;;;;;;4.90;2.72;;;8.30;99.90;;;;;;5093832;28;20437;-81
2023/04/17 04:10:43;;;;;;;1.77;1.55;;;7.20;99.90;;;;;;5090210;28;20028;-82
2023/04/17 04:13:09;;;;;;;0.75;0.75;;;7.10;99.90;;;;;;5073720;28;20032;-82
2023/04/17 04:15:35;;;;;;;1.95;1.75;;;7.10;99.90;;;;;;5073042;28;20060;-82
2023/04/17 04:18:04;;;;;;;3.83;2.10;;;7.10;99.90;;;;;;5072883;28;20052;-81
2023/04/17 04:20:30;;;;;;;0.47;0.47;;;7.10;99.90;;;;;;5072359;28;20056;-83
2023/04/17 04:22:56;;;;;;;2.33;1.55;;;7.10;99.90;;;;;;5070341;28;20096;-81
2023/04/17 04:25:25;;;;;;;1.60;1.50;;;7.20;99.90;;;;;;5058070;28;20045;-81
2023/04/17 04:27:52;;;;;;;3.95;1.90;;;7.10;99.90;;;;;;5059865;28;20072;-82
2023/04/17 04:30:19;;;;;;;2.65;1.83;;;7.10;99.90;;;;;;5059944;28;20040;-80
2023/04/17 04:32:48;;;;;;;4.00;2.20;;;7.10;99.90;;;;;;5060560;28;20044;-81
2023/04/17 04:35:14;;;;;;;4.75;2.13;;;7.10;99.90;;;;;;5060641;28;20045;-82
2023/04/17 04:37:45;;;;;;;2.70;1.98;;;7.10;99.90;;;;;;5060129;28;20041;-82
2023/04/17 04:40:14;;;;;;;4.22;3.42;;;7.10;99.90;;;;;;5059310;28;20076;-81
2023/04/17 04:42:48;;;;;;;3.55;1.38;;;7.10;99.90;;;;;;5061018;28;20045;-81
2023/04/17 04:45:15;;;;;;;2.58;1.85;;;7.10;99.90;;;;;;5059050;28;20109;-81
2023/04/17 04:47:41;;;;;;;3.53;2.15;;;7.10;99.90;;;;;;5059962;28;21351;-82
2023/04/17 04:50:08;;;;;;;2.75;2.08;;;7.10;99.90;;;;;;5059192;28;20063;-82
2023/04/17 04:52:34;;;;;;;4.32;2.53;;;7.00;99.90;;;;;;5074418;28;20052;-82
2023/04/17 04:55:00;;;;;;;1.83;1.20;;;7.00;99.90;;;;;;5076820;28;20053;-82
2023/04/17 04:57:26;;;;;;;2.17;1.67;;;7.00;99.90;;;;;;5078641;28;20102;-81
2023/04/17 04:59:52;;;;;;;2.50;2.25;;;7.00;99.90;;;;;;5079456;28;20040;-81
2023/04/17 05:02:18;;;;;;;0.93;0.93;;;7.00;99.90;;;;;;5066716;28;20049;-82
2023/04/17 05:04:44;;;;;;;1.48;1.38;;;7.00;99.90;;;;;;5041291;28;20137;-81
2023/04/17 05:07:10;;;;;;;1.63;1.52;;;7.00;99.90;;;;;;5059144;28;20076;-81
2023/04/17 05:09:35;;;;;;;3.03;2.60;;;7.00;99.90;;;;;;5059371;28;20055;-82
2023/04/17 05:12:05;;;;;;;2.75;1.90;;;7.00;99.90;;;;;;5069627;28;20044;-82
2023/04/17 05:14:30;;;;;;;0.90;0.43;;;7.10;99.90;;;;;;5078497;28;20072;-81
2023/04/17 05:16:56;;;;;;;2.78;2.13;;;7.10;99.90;;;;;;5062732;28;20056;-81
2023/04/17 05:19:22;;;;;;;2.85;2.13;;;7.10;99.90;;;;;;5080028;28;20131;-82
2023/04/17 05:21:47;;;;;;;8.68;3.08;;;7.20;99.90;;;;;;5070843;28;20070;-82
2023/04/17 05:24:13;;;;;;;2.92;2.00;;;7.20;99.90;;;;;;5058653;28;20504;-82
2023/04/17 05:26:39;;;;;;;1.33;1.23;;;8.10;99.90;;;;;;5059588;28;20056;-82
2023/04/17 05:29:05;;;;;;;4.15;2.28;;;7.30;99.90;;;;;;5059348;28;20092;-82
2023/04/17 05:31:34;;;;;;;5.82;2.58;;;7.40;99.90;;;;;;5058835;28;20083;-82
2023/04/17 05:34:00;;;;;;;3.80;2.92;;;7.30;99.90;;;;;;5057844;28;20057;-81
2023/04/17 05:36:25;;;;;;;4.85;3.40;;;7.40;99.90;;;;;;5056757;28;20124;-82
2023/04/17 05:38:51;;;;;;;4.28;3.78;;;7.40;99.90;;;;;;5053354;28;20051;-81
2023/04/17 05:41:17;;;;;;;3.08;1.85;;;7.60;99.90;;;;;;5068092;28;20052;-81
2023/04/17 05:43:43;;;;;;;4.93;3.45;;;7.50;99.90;;;;;;5073089;28;20045;-82
2023/04/17 05:46:08;;;;;;;9.93;2.90;;;7.50;99.90;;;;;;5074010;28;20136;-81
2023/04/17 05:48:34;;;;;;;3.20;2.25;;;7.60;99.90;;;;;;5060596;28;20045;-81
2023/04/17 05:51:01;;;;;;;3.75;2.75;;;7.60;99.90;;;;;;5052035;28;20120;-81
2023/04/17 05:53:29;;;;;;;1.92;1.35;;;7.60;99.90;;;;;;5052542;28;20091;-81
2023/04/17 05:55:54;;;;;;;3.63;2.83;;;7.60;99.90;;;;;;5051677;28;20050;-81
2023/04/17 05:58:20;;;;;;;3.65;2.50;;;7.60;99.90;;;;;;5051850;28;20467;-82
2023/04/17 06:00:49;;;;;;;4.22;2.97;;;7.70;99.90;;;;;;5050229;28;20052;-82
2023/04/17 06:03:15;;;;;;;1.88;1.77;;;7.70;99.90;;;;;;5051453;28;20045;-81
2023/04/17 06:05:41;;;;;;;4.32;2.60;;;7.80;99.90;;;;;;5064413;28;20536;-81
2023/04/17 06:08:07;;;;;;;2.00;1.83;;;7.90;99.90;;;;;;5053667;28;20056;-82
2023/04/17 06:10:33;;;;;;;2.10;1.88;;;7.90;99.90;;;;;;5050602;28;20049;-81
2023/04/17 06:12:59;;;;;;;2.42;2.13;;;7.90;99.90;;;;;;5052605;28;20052;-82
2023/04/17 06:15:26;;;;;;;2.55;2.35;;;8.30;99.90;;;;;;5052156;28;20067;-82
2023/04/17 06:17:52;;;;;;;1.45;1.35;;;8.00;99.90;;;;;;5050754;28;20112;-82
2023/04/17 06:20:17;;;;;;;3.75;2.33;;;8.10;99.90;;;;;;5057754;28;20080;-81
2023/04/17 06:22:45;;;;;;;3.63;2.08;;;8.20;99.90;;;;;;5074636;28;20041;-82
2023/04/17 06:25:11;;;;;;;3.50;2.63;;;9.20;99.90;;;;;;5062293;28;20048;-82
2023/04/17 06:27:37;;;;;;;5.22;3.75;;;8.30;99.90;;;;;;5057275;28;20483;-82
2023/04/17 06:30:04;;;;;;;2.95;2.67;;;8.30;99.90;;;;;;5055432;28;20056;-81
2023/04/17 06:32:30;;;;;;;1.75;1.55;;;8.40;99.90;;;;;;5052887;28;20045;-81
2023/04/17 06:34:55;;;;;;;3.60;2.40;;;8.90;99.90;;;;;;5050077;28;20051;-82
2023/04/17 06:37:21;;;;;;;2.75;2.50;;;8.60;99.90;;;;;;5047740;28;20044;-82
2023/04/17 06:39:47;;;;;;;4.70;3.20;;;8.60;99.90;;;;;;5055703;28;20059;-82
2023/04/17 06:42:15;;;;;;;2.30;2.08;;;8.70;99.90;;;;;;5051651;28;20040;-82
2023/04/17 06:44:42;;;;;;;1.50;1.40;;;9.10;99.90;;;;;;5051235;28;20102;-82
2023/04/17 06:47:07;;;;;;;1.27;1.17;;;8.90;99.90;;;;;;5063003;28;20386;-82
2023/04/17 06:49:33;;;;;;;2.92;2.63;;;8.90;99.90;;;;;;5059642;28;20071;-83
2023/04/17 06:51:59;;;;;;;2.58;2.38;;;8.90;99.90;;;;;;5061949;28;20053;-81
2023/04/17 06:54:25;;;;;;;2.45;1.65;;;8.90;99.90;;;;;;5060944;28;20098;-82
2023/04/17 06:56:51;;;;;;;4.10;1.92;;;9.00;99.90;;;;;;5060090;28;20052;-82
2023/04/17 06:59:17;;;;;;;3.40;2.33;;;9.10;99.90;;;;;;5061276;28;20156;-82
2023/04/17 07:01:43;;;;;;;3.53;2.92;;;9.30;99.90;;;;;;5064235;28;20101;-82
2023/04/17 07:04:09;;;;;;;5.47;2.72;;;9.40;99.90;;;;;;5080074;28;20064;-82
2023/04/17 07:06:35;;;;;;;1.42;1.33;;;9.60;99.90;;;;;;5077313;28;20033;-81
2023/04/17 07:09:04;;;;;;;1.23;1.08;;;9.70;99.90;;;;;;5077900;28;20048;-81
2023/04/17 07:11:30;;;;;;;3.42;1.92;;;10.00;99.90;;;;;;5072859;28;20053;-83
2023/04/17 07:13:55;;;;;;;1.23;1.15;;;10.10;99.90;;;;;;5072821;28;20028;-81
2023/04/17 07:16:21;;;;;;;2.35;1.80;;;10.10;42.70;;;;;;5072902;28;20052;-81
2023/04/17 07:18:50;;;;;;;2.50;1.88;;;10.10;1.00;;;;;;5040988;28;20057;-82
2023/04/17 07:21:17;;;;;;;7.53;3.85;;;10.20;1.00;;;;;;5057105;28;20084;-82
2023/04/17 07:23:43;;;;;;;0.93;0.77;;;10.50;99.90;;;;;;5064899;28;20064;-82
2023/04/17 07:26:12;;;;;;;1.92;1.70;;;10.60;99.90;;;;;;5076299;28;20045;-82
2023/04/17 07:28:38;;;;;;;2.72;2.50;;;10.70;1.00;;;;;;5072756;28;20154;-81
2023/04/17 07:31:08;;;;;;;2.67;2.30;;;10.90;38.70;;;;;;5075155;28;20041;-83
2023/04/17 07:33:37;;;;;;;2.92;2.38;;;11.00;99.90;;;;;;5074204;28;20044;-82
2023/04/17 07:36:04;;;;;;;0.82;0.73;;;11.30;99.90;;;;;;5074998;28;20052;-82
2023/04/17 07:38:33;;;;;;;2.33;2.00;;;11.40;99.90;;;;;;5075137;28;20422;-82
2023/04/17 07:40:59;;;;;;;1.52;1.42;;;11.70;1.00;;;;;;5075254;28;20044;-82
2023/04/17 07:43:28;;;;;;;4.75;2.80;;;11.60;31.30;;;;;;5075552;28;20044;-82
2023/04/17 07:45:54;;;;;;;1.98;1.40;;;11.40;99.90;;;;;;5073513;28;20131;-82
2023/04/17 07:48:21;;;;;;;2.05;1.92;;;11.30;99.90;;;;;;5075175;28;20055;-82
2023/04/17 07:50:50;;;;;;;4.57;2.67;;;11.30;99.90;;;;;;5071647;28;20056;-82
2023/04/17 07:53:20;;;;;;;1.20;1.10;;;11.50;99.90;;;;;;5074590;28;20608;-84
2023/04/17 07:55:47;;;;;;;4.90;3.30;;;11.40;99.90;;;;;;5074092;28;20044;-83
2023/04/17 07:58:12;;;;;;;2.70;2.13;;;12.80;99.90;;;;;;5074609;28;20059;-83
2023/04/17 08:00:40;;;;;;;2.92;2.20;;;11.80;99.90;;;;;;5074861;28;20049;-83
2023/04/17 08:03:06;;;;;;;3.05;1.70;;;11.90;99.90;;;;;;5075205;28;20051;-83
2023/04/17 08:05:32;;;;;;;2.63;2.03;;;12.00;99.90;;;;;;5074563;28;20045;-83
2023/04/17 08:08:03;;;;;;;3.28;2.35;;;12.10;1.00;;;;;;5075507;28;20392;-83
2023/04/17 08:10:29;;;;;;;3.22;2.60;;;12.50;99.90;;;;;;5073903;28;20137;-83
2023/04/17 08:12:55;;;;;;;2.13;1.27;;;12.30;90.90;;;;;;5073829;28;20059;-83
2023/04/17 08:15:27;;;;;;;1.77;1.67;;;12.30;99.90;;;;;;5073478;28;20049;-81
2023/04/17 08:17:52;;;;;;;4.05;2.35;;;12.20;63.10;;;;;;5055525;28;20464;-82
2023/04/17 08:20:21;;;;;;;10.30;2.10;;;12.00;99.90;;;;;;5052609;28;20053;-83
2023/04/17 08:22:47;;;;;;;2.15;1.90;;;12.10;1.00;;;;;;5052722;28;20049;-82
2023/04/17 08:25:13;;;;;;;1.58;1.48;;;12.50;99.90;;;;;;5053266;28;20131;-82
2023/04/17 08:27:42;;;;;;;4.22;1.10;;;12.80;99.90;;;;;;5053157;28;20380;-82
2023/04/17 08:30:10;;;;;;;2.10;1.13;;;13.00;1.00;;;;;;5054458;28;20041;-82
2023/04/17 08:32:56;;;;;;;2.40;2.20;;;13.10;1.00;;;;;;5052587;28;20080;-82
2023/04/17 08:35:22;;;;;;;1.33;1.23;;;13.00;99.90;;;;;;5052680;28;20128;-82
2023/04/17 08:37:48;;;;;;;3.30;1.58;;;12.80;1.00;;;;;;5035785;28;20084;-82
2023/04/17 08:40:15;;;;;;;3.45;1.65;;;12.80;1.00;;;;;;5053138;28;20045;-82
2023/04/17 08:42:42;;;;;;;2.83;1.90;;;12.90;1.00;;;;;;5053082;28;20053;-82
2023/04/17 08:45:12;;;;;;;1.15;1.02;;;13.00;1.00;;;;;;5052785;28;20060;-83
2023/04/17 08:47:39;;;;;;;1.77;0.70;;;13.20;1.00;;;;;;5050740;28;20043;-83
2023/04/17 08:50:17;;;;;;;1.13;1.00;;;13.60;1.00;;;;;;5050830;28;20215;-83
2023/04/17 08:52:45;;;;;;;1.95;1.80;;;13.50;99.90;;;;;;5051300;28;20061;-83
2023/04/17 08:55:13;;;;;;;1.20;1.02;;;13.60;99.90;;;;;;5052909;28;20487;-83
2023/04/17 08:58:02;;;;;;;3.38;1.60;;;14.50;99.90;;;;;;5053646;28;20100;-84
2023/04/17 09:00:33;;;;;;;2.13;1.52;;;14.00;99.90;;;;;;5053209;28;20049;-83
2023/04/17 09:03:00;;;;;;;1.40;0.93;;;14.30;99.90;;;;;;5052119;28;20045;-82
2023/04/17 09:05:32;;;;;;;3.75;2.13;;;15.60;99.90;;;;;;5051315;28;20608;-82
2023/04/17 09:08:15;;;;;;;2.05;1.13;;;15.00;99.90;;;;;;5050096;28;20052;-84
2023/04/17 09:10:44;;;;;;;1.10;0.90;;;15.40;96.00;;;;;;5052791;28;20159;-82
2023/04/17 09:13:14;;;;;;;2.30;1.90;;;15.70;84.60;;;;;;5052336;28;20087;-83
2023/04/17 09:15:42;;;;;;;1.15;1.02;;;16.00;1.00;;;;;;5051019;28;20521;-83
2023/04/17 09:18:25;;;;;;;1.80;1.35;;;15.90;1.00;;;;;;5050889;28;20053;-83
2023/04/17 09:20:50;;;;;;;2.35;1.95;;;15.70;1.00;;;;;;5050184;28;20520;-84
2023/04/17 09:23:16;;;;;;;2.80;1.35;;;16.00;1.00;;;;;;5049341;28;20471;-81
2023/04/17 09:25:42;;;;;;;2.63;2.03;;;16.70;1.00;;;;;;5052395;28;20049;-82
2023/04/17 09:28:14;;;;;;;4.20;2.20;;;16.00;1.00;;;;;;5051105;28;20052;-82
2023/04/17 09:30:41;;;;;;;0.65;0.65;;;15.90;1.00;;;;;;5050120;28;20045;-82
2023/04/17 09:33:08;;;;;;;1.15;0.82;;;16.10;1.00;;;;;;5030852;28;20040;-83
2023/04/17 09:35:37;;;;;;;2.53;1.63;;;16.20;1.00;;;;;;5055213;28;20580;-84
2023/04/17 09:38:03;;;;;;;2.85;1.63;;;16.40;1.00;;;;;;5068578;28;20456;-82
2023/04/17 09:40:37;;;;;;;5.18;1.48;;;16.80;1.00;;;;;;5065339;28;20127;-83
2023/04/17 09:43:05;;;;;;;4.32;1.25;;;16.90;1.00;;;;;;5067031;28;20050;-83
2023/04/17 09:45:35;;;;;;;1.05;0.90;;;16.30;1.00;;;;;;5079019;28;20168;-82
2023/04/17 09:48:09;;;;;;;3.10;2.42;;;16.40;1.00;;;;;;5084457;28;20404;-83
2023/04/17 09:50:36;;;;;;;1.38;1.08;;;16.80;1.00;;;;;;5083118;28;20049;-81
2023/04/17 09:53:03;;;;;;;1.85;0.93;;;17.10;1.00;;;;;;5083407;28;20055;-83
2023/04/17 09:55:33;;;;;;;1.42;0.82;;;17.40;1.00;;;;;;5085988;28;20091;-84
2023/04/17 09:58:06;;;;;;;1.27;0.85;;;18.20;99.90;;;;;;5093981;28;20028;-82
2023/04/17 10:00:32;;;;;;;1.05;0.95;;;17.20;99.90;;;;;;5093854;28;20028;-82
2023/04/17 10:02:58;;;;;;;1.30;1.20;;;16.60;99.90;;;;;;5091897;28;20028;-83
2023/04/17 10:05:27;;;;;;;10.45;1.75;;;16.90;1.00;;;;;;5093733;28;20132;-82
2023/04/17 10:07:54;;;;;;;3.03;1.98;;;16.40;99.90;;;;;;5094446;28;20033;-82
2023/04/17 10:10:32;;;;;;;2.03;1.38;;;15.90;1.00;;;;;;5094387;28;20039;-83
2023/04/17 10:13:00;;;;;;;4.85;1.73;;;16.10;99.90;;;;;;5088915;28;20043;-83
2023/04/17 10:15:27;;;;;;;4.53;1.70;;;15.90;99.90;;;;;;5075445;28;20043;-83
2023/04/17 10:17:56;;;;;;;1.73;1.42;;;15.70;99.90;;;;;;5076277;28;20061;-83
2023/04/17 10:20:22;;;;;;;1.33;1.23;;;15.70;99.90;;;;;;5075256;28;20281;-83
2023/04/17 10:22:53;;;;;;;1.40;1.30;;;15.70;99.90;;;;;;5075425;28;20284;-83
2023/04/17 10:25:21;;;;;;;2.28;1.30;;;15.60;1.00;;;;;;5073357;28;20052;-83
2023/04/17 10:28:07;;;;;;;8.93;2.10;;;16.00;1.00;;;;;;5077279;28;20127;-83
2023/04/17 10:30:52;;;;;;;1.52;1.10;;;15.60;99.90;;;;;;5081516;28;20052;-83
2023/04/17 10:33:26;;;;;;;3.10;1.92;;;16.10;1.00;;;;;;5093071;28;20032;-84
2023/04/17 10:35:52;;;;;;;1.17;1.08;;;16.70;1.00;;;;;;5093681;28;20055;-83
2023/04/17 10:38:31;;;;;;;2.72;1.38;;;17.10;99.90;;;;;;5076971;28;20818;-83
2023/04/17 10:41:01;;;;;;;1.85;1.55;;;17.50;99.90;;;;;;5066986;28;20074;-83
2023/04/17 10:43:27;;;;;;;1.48;1.35;;;16.90;99.90;;;;;;5067701;28;20044;-83
2023/04/17 10:45:58;;;;;;;1.33;0.95;;;17.20;99.90;;;;;;5069332;28;20045;-83
2023/04/17 10:48:46;;;;;;;1.55;1.08;;;17.50;99.90;;;;;;5069072;28;20131;-83
2023/04/17 10:51:25;;;;;;;2.42;1.70;;;17.90;99.90;;;;;;5069963;28;20109;-82
2023/04/17 10:53:56;;;;;;;3.13;2.50;;;17.70;99.90;;;;;;5070322;28;20059;-83
2023/04/17 10:56:46;;;;;;;2.70;0.90;;;17.20;99.90;;;;;;5068721;28;20474;-83
2023/04/17 10:59:28;;;;;;;7.07;2.33;;;16.90;99.90;;;;;;5071722;28;20494;-83
2023/04/17 11:01:58;;;;;;;7.95;2.30;;;16.80;99.90;;;;;;5069918;28;20044;-82
2023/04/17 11:04:27;;;;;;;3.17;2.38;;;16.60;99.90;;;;;;5070396;28;20044;-83
2023/04/17 11:06:54;;;;;;;1.13;1.05;;;16.30;99.90;;;;;;5071807;28;20548;-80
2023/04/17 11:09:22;;;;;;;1.67;1.33;;;16.10;99.90;;;;;;5070317;28;20048;-83
2023/04/17 11:11:47;;;;;;;0.90;0.80;;;16.60;99.90;;;;;;5072997;28;20226;-83
2023/04/17 11:14:15;;;;;;;1.42;1.30;;;16.30;99.90;;;;;;5074917;28;20089;-83
2023/04/17 11:16:43;;;;;;;1.63;1.48;;;16.20;99.90;;;;;;5075381;28;20048;-82
2023/04/17 11:19:14;;;;;;;1.98;1.50;;;16.20;99.90;;;;;;5075099;28;20131;-83
2023/04/17 11:21:50;;;;;;;1.90;1.52;;;16.20;99.90;;;;;;5075765;28;20050;-83
2023/04/17 11:24:34;;;;;;;1.30;1.13;;;16.20;99.90;;;;;;5076655;28;20127;-83
2023/04/17 11:27:02;;;;;;;2.42;1.73;;;16.10;99.90;;;;;;5056673;28;20048;-82
2023/04/17 11:29:28;;;;;;;4.40;2.53;;;16.50;99.90;;;;;;5075737;28;20040;-83
2023/04/17 11:31:55;;;;;;;3.55;2.08;;;16.20;99.90;;;;;;5074433;28;20129;-83
2023/04/17 11:34:22;;;;;;;2.22;2.00;;;16.30;99.90;;;;;;5074084;28;20040;-83
2023/04/17 11:36:52;;;;;;;1.70;1.45;;;16.40;99.90;;;;;;5073786;28;20041;-82
2023/04/17 11:39:28;;;;;;;4.03;1.45;;;16.60;99.90;;;;;;5073718;28;20056;-83
2023/04/17 11:41:55;;;;;;;3.07;1.80;;;16.60;99.90;;;;;;5073375;28;20044;-82
2023/04/17 11:44:22;;;;;;;1.33;1.23;;;17.30;99.90;;;;;;5072474;28;20056;-83
2023/04/17 11:46:52;;;;;;;2.35;1.23;;;18.30;99.90;;;;;;5073719;28;20082;-84
2023/04/17 11:49:31;;;;;;;0.70;0.60;;;18.70;99.90;;;;;;5074088;28;20074;-83
2023/04/17 11:52:02;;;;;;;2.65;1.70;;;18.60;99.90;;;;;;5072149;28;20044;-82
2023/04/17 11:54:30;;;;;;;3.63;2.28;;;17.90;99.90;;;;;;5075132;28;20228;-82
2023/04/17 11:57:05;;;;;;;2.13;1.92;;;17.50;99.90;;;;;;5072213;28;20044;-82
2023/04/17 11:59:36;;;;;;;1.58;1.23;;;17.20;99.90;;;;;;5068757;28;20510;-82
2023/04/17 12:02:03;;;;;;;2.30;1.52;;;17.60;99.90;;;;;;5069245;28;20051;-82
2023/04/17 12:04:32;;;;;;;0.60;0.60;;;18.20;99.90;;;;;;5067791;28;20428;-83
2023/04/17 12:06:58;;;;;;;3.65;2.72;;;18.10;99.90;;;;;;5067449;28;20044;-83
2023/04/17 12:09:26;;;;;;;1.00;0.93;;;18.20;99.90;;;;;;5067047;28;20053;-83
2023/04/17 12:11:52;;;;;;;1.17;1.08;;;17.80;99.90;;;;;;5066878;28;20053;-84
2023/04/17 12:14:18;;;;;;;2.90;1.25;;;16.90;99.90;;;;;;5065016;28;20151;-83
2023/04/17 12:16:48;;;;;;;0.75;0.75;;;16.50;99.90;;;;;;5066890;28;20131;-83
2023/04/17 12:19:15;;;;;;;4.97;1.70;;;16.60;99.90;;;;;;5067292;28;20422;-82
2023/04/17 12:21:42;;;;;;;2.90;2.05;;;16.30;99.90;;;;;;5065417;28;20159;-83
2023/04/17 12:24:08;;;;;;;2.22;1.38;;;16.60;99.90;;;;;;5066264;28;20063;-83
2023/04/17 12:26:34;;;;;;;4.85;1.88;;;16.40;99.90;;;;;;5068987;28;20615;-84
2023/04/17 12:29:00;;;;;;;1.38;1.27;;;16.60;99.90;;;;;;5069115;28;20521;-83
2023/04/17 12:31:26;;;;;;;2.08;1.85;;;17.50;99.90;;;;;;5067863;28;20052;-83
2023/04/17 12:33:51;;;;;;;1.95;1.55;;;18.00;99.90;;;;;;5067775;28;20338;-82
2023/04/17 12:36:17;;;;;;;0.95;0.77;;;17.90;99.90;;;;;;5066644;28;20044;-81
2023/04/17 12:38:43;;;;;;;4.05;1.58;;;17.50;99.90;;;;;;5067522;28;20393;-82
2023/04/17 12:41:09;;;;;;;1.08;0.77;;;17.70;99.90;;;;;;5066921;28;20049;-82
2023/04/17 12:43:35;;;;;;;5.18;2.47;;;17.40;99.90;;;;;;5065453;28;20151;-82
2023/04/17 12:46:01;;;;;;;0.85;0.85;;;16.60;99.90;;;;;;5065268;28;20466;-83
2023/04/17 12:48:27;;;;;;;1.33;0.70;;;17.10;99.90;;;;;;5066455;28;20127;-82
2023/04/17 12:50:53;;;;;;;1.92;1.65;;;17.90;99.90;;;;;;5067115;28;20459;-82
2023/04/17 12:53:19;;;;;;;3.50;2.17;;;18.80;99.90;;;;;;5066213;28;20055;-81
2023/04/17 12:55:47;;;;;;;3.47;2.10;;;19.20;99.90;;;;;;5064851;28;20473;-83